createdAt,value
2023-02-17T00:04:34.906Z,96.73
2023-02-17T00:09:38.467Z,97.28
2023-02-17T00:14:41.931Z,97.35
2023-02-17T00:19:45.789Z,98.00
2023-02-17T00:24:49.160Z,97.70
2023-02-17T00:29:52.577Z,97.92
2023-02-17T00:34:57.145Z,97.66
2023-02-17T00:40:00.257Z,98.66
2023-02-17T00:45:03.908Z,98.99
2023-02-17T00:50:09.449Z,98.58
2023-02-17T00:55:13.020Z,98.61
2023-02-17T01:00:17.119Z,99.22
2023-02-17T01:05:21.212Z,99.58
2023-02-17T01:10:24.957Z,99.55
2023-02-17T01:15:27.927Z,98.60
2023-02-17T01:20:31.834Z,98.27
2023-02-17T01:25:40.007Z,98.75
2023-02-17T01:30:43.931Z,98.12
2023-02-17T01:35:49.967Z,98.37
2023-02-17T01:40:53.782Z,97.82
2023-02-17T01:46:03.542Z,97.95
2023-02-17T01:51:15.608Z,97.42
2023-02-17T01:56:19.522Z,97.46
2023-02-17T02:01:23.557Z,98.28
2023-02-17T02:06:29.075Z,98.59
2023-02-17T02:11:32.742Z,98.93
2023-02-17T02:16:39.557Z,99.19
2023-02-17T02:22:01.724Z,99.32
2023-02-17T02:27:39.432Z,99.36
2023-02-17T02:33:08.118Z,99.28
2023-02-17T02:38:20.218Z,99.71
2023-02-17T02:43:25.295Z,99.95
2023-02-17T02:48:28.939Z,99.92
2023-02-17T02:53:43.105Z,99.99
2023-02-17T02:59:17.433Z,99.40
2023-02-17T03:04:36.623Z,99.67
2023-02-17T03:09:42.655Z,99.65
2023-02-17T03:14:54.066Z,99.76
2023-02-17T03:20:00.684Z,100.00
2023-02-17T03:25:04.802Z,100.00
2023-02-17T03:30:09.372Z,100.00
2023-02-17T03:35:14.166Z,100.00
2023-02-17T03:40:17.913Z,100.00
2023-02-17T03:45:22.048Z,100.00
2023-02-17T03:50:25.687Z,100.00
2023-02-17T03:55:29.340Z,100.00
2023-02-17T04:00:32.807Z,100.00
2023-02-17T04:05:36.385Z,100.00
2023-02-17T04:10:40.108Z,100.00
2023-02-17T04:15:43.852Z,100.00
2023-02-17T04:20:49.567Z,100.00
2023-02-17T04:25:53.254Z,100.00
2023-02-17T04:30:58.926Z,100.00
2023-02-17T04:36:02.105Z,100.00
2023-02-17T04:41:06.734Z,100.00
2023-02-17T04:46:12.125Z,100.00
2023-02-17T04:51:15.774Z,100.00
2023-02-17T04:56:19.534Z,100.00
2023-02-17T05:01:23.191Z,100.00
2023-02-17T05:06:27.045Z,100.00
2023-02-17T05:11:31.735Z,100.00
2023-02-17T05:16:35.407Z,100.00
2023-02-17T05:21:38.569Z,100.00
2023-02-17T05:26:41.639Z,100.00
2023-02-17T05:31:45.224Z,100.00
2023-02-17T05:36:48.426Z,100.00
2023-02-17T05:41:51.939Z,100.00
2023-02-17T05:46:55.538Z,100.00
2023-02-17T05:51:59.260Z,100.00
2023-02-17T05:57:02.883Z,100.00
2023-02-17T06:02:06.721Z,100.00
2023-02-17T06:07:10.322Z,100.00
2023-02-17T06:12:13.909Z,100.00
2023-02-17T06:17:17.077Z,100.00
2023-02-17T06:22:20.173Z,100.00
2023-02-17T06:27:23.691Z,100.00
2023-02-17T06:32:28.359Z,100.00
2023-02-17T06:37:31.984Z,100.00
2023-02-17T06:42:35.863Z,100.00
2023-02-17T06:47:39.291Z,100.00
2023-02-17T06:52:42.435Z,100.00
2023-02-17T06:57:45.713Z,100.00
2023-02-17T07:02:49.007Z,93.95
2023-02-17T07:07:54.026Z,85.60
2023-02-17T07:12:57.207Z,79.89
2023-02-17T07:18:02.408Z,73.88
2023-02-17T07:23:05.584Z,68.51
2023-02-17T07:28:08.967Z,63.74
2023-02-17T07:33:12.608Z,57.23
2023-02-17T07:38:16.259Z,57.48
2023-02-17T07:43:19.328Z,54.83
2023-02-17T07:48:23.587Z,53.93
2023-02-17T07:53:27.297Z,54.37
2023-02-17T07:58:33.444Z,53.27
2023-02-17T08:03:37.129Z,47.11
2023-02-17T08:08:59.544Z,43.54
2023-02-17T08:14:03.041Z,45.23
2023-02-17T08:19:07.544Z,43.60
2023-02-17T08:24:11.404Z,45.65
2023-02-17T08:29:15.341Z,43.88
2023-02-17T08:34:18.673Z,40.51
2023-02-17T08:39:23.337Z,38.77
2023-02-17T08:44:27.636Z,36.17
2023-02-17T08:49:32.916Z,35.03
2023-02-17T08:54:37.105Z,35.42
2023-02-17T08:59:40.753Z,37.66
2023-02-17T09:04:44.544Z,36.71
2023-02-17T09:09:47.819Z,36.24
2023-02-17T09:14:51.525Z,36.26
2023-02-17T09:19:54.992Z,36.61
2023-02-17T09:24:58.769Z,37.09
2023-02-17T09:30:02.972Z,37.44
2023-02-17T09:35:07.246Z,37.12
2023-02-17T09:40:20.258Z,37.91
2023-02-17T09:45:28.542Z,37.36
2023-02-17T09:50:54.776Z,37.42
2023-02-17T09:56:02.231Z,38.73
2023-02-17T10:01:16.361Z,37.45
2023-02-17T10:06:26.761Z,40.48
2023-02-17T10:11:35.113Z,38.33
2023-02-17T10:17:27.707Z,37.99
2023-02-17T10:22:33.259Z,40.65
2023-02-17T10:28:08.157Z,43.90
2023-02-17T10:33:23.994Z,39.24
2023-02-17T10:38:52.008Z,40.70
2023-02-17T10:43:56.346Z,40.85
2023-02-17T10:49:00.512Z,46.92
2023-02-17T10:54:08.610Z,43.93
2023-02-17T10:59:24.275Z,44.83
2023-02-17T11:04:27.771Z,41.88
2023-02-17T11:09:34.334Z,42.35
2023-02-17T11:14:38.510Z,42.79
2023-02-17T11:19:41.590Z,44.81
2023-02-17T11:24:45.400Z,43.52
2023-02-17T11:29:48.573Z,45.31
2023-02-17T11:34:58.862Z,46.60
2023-02-17T11:40:17.446Z,46.22
2023-02-17T11:45:23.464Z,45.06
2023-02-17T11:50:42.284Z,45.43
2023-02-17T11:55:59.642Z,45.55
2023-02-17T12:01:47.420Z,44.73
2023-02-17T12:07:13.944Z,45.46
2023-02-17T12:12:59.014Z,45.69
2023-02-17T12:18:24.496Z,48.22
2023-02-17T12:23:54.618Z,48.22
2023-02-17T12:29:12.579Z,50.01
2023-02-17T12:34:37.421Z,50.17
2023-02-17T12:39:50.232Z,51.15
2023-02-17T12:45:00.600Z,51.57
2023-02-17T12:50:36.344Z,50.44
2023-02-17T12:55:49.095Z,49.57
2023-02-17T13:01:09.616Z,48.67
2023-02-17T13:06:43.368Z,47.18
2023-02-17T13:11:46.942Z,47.61
2023-02-17T13:16:50.366Z,51.61
2023-02-17T13:21:56.178Z,50.03
2023-02-17T13:27:12.642Z,49.06
2023-02-17T13:32:15.774Z,47.32
2023-02-17T13:37:40.056Z,47.65
2023-02-17T13:42:48.524Z,46.53
2023-02-17T13:47:54.754Z,45.09
2023-02-17T13:52:57.870Z,45.66
2023-02-17T13:58:01.378Z,45.88
2023-02-17T14:03:18.642Z,46.06
2023-02-17T14:08:48.753Z,48.78
2023-02-17T14:13:54.730Z,46.00
2023-02-17T14:19:04.493Z,44.86
2023-02-17T14:24:11.684Z,46.09
2023-02-17T14:29:16.612Z,50.15
2023-02-17T14:34:29.685Z,50.60
2023-02-17T14:39:33.407Z,51.08
2023-02-17T14:44:36.490Z,52.36
2023-02-17T14:49:39.579Z,54.40
2023-02-17T14:54:43.240Z,54.46
2023-02-17T14:59:46.835Z,53.56
2023-02-17T15:04:49.985Z,54.99
2023-02-17T15:09:53.137Z,57.48
2023-02-17T15:14:56.888Z,57.79
2023-02-17T15:20:00.117Z,59.25
2023-02-17T15:25:03.274Z,59.09
2023-02-17T15:30:12.126Z,60.59
2023-02-17T15:35:24.271Z,60.62
2023-02-17T15:40:28.914Z,61.92
2023-02-17T15:45:35.098Z,63.21
2023-02-17T15:50:38.419Z,64.51
2023-02-17T15:55:42.241Z,65.52
2023-02-17T16:00:50.561Z,64.97
2023-02-17T16:05:54.438Z,66.79
2023-02-17T16:10:57.624Z,68.87
2023-02-17T16:16:01.455Z,71.32
2023-02-17T16:21:04.813Z,72.72
2023-02-17T16:26:31.609Z,70.20
2023-02-17T16:31:37.104Z,75.39
2023-02-17T16:36:40.902Z,76.90
2023-02-17T16:41:45.468Z,74.92
2023-02-17T16:46:50.221Z,78.53
2023-02-17T16:51:54.330Z,77.42
2023-02-17T16:56:59.439Z,80.71
2023-02-17T17:02:03.603Z,79.46
2023-02-17T17:07:06.692Z,81.86
2023-02-17T17:12:11.702Z,85.19
2023-02-17T17:17:14.786Z,86.94
2023-02-17T17:22:18.221Z,88.65
2023-02-17T17:27:21.797Z,88.83
2023-02-17T17:32:25.015Z,89.26
2023-02-17T17:37:28.302Z,89.95
2023-02-17T17:42:32.039Z,90.56
2023-02-17T17:47:35.452Z,91.40
2023-02-17T17:52:38.940Z,92.15
2023-02-17T17:57:42.969Z,92.48
2023-02-17T18:02:46.071Z,92.73
2023-02-17T18:07:50.739Z,93.01
2023-02-17T18:12:54.639Z,93.35
2023-02-17T18:17:57.818Z,93.39
2023-02-17T18:23:01.803Z,94.09
2023-02-17T18:28:05.026Z,94.67
2023-02-17T18:33:08.501Z,95.54
2023-02-17T18:38:12.465Z,95.19
2023-02-17T18:43:17.286Z,94.62
2023-02-17T18:48:20.750Z,94.38
2023-02-17T18:53:24.071Z,94.18
2023-02-17T18:58:27.933Z,86.53
2023-02-17T19:03:31.190Z,88.05
2023-02-17T19:08:34.705Z,88.68
2023-02-17T19:13:38.181Z,88.24
2023-02-17T19:18:43.249Z,87.65
2023-02-17T19:23:47.254Z,86.78
2023-02-17T19:28:51.270Z,86.78
2023-02-17T19:33:57.231Z,86.90
2023-02-17T19:39:00.712Z,86.93
2023-02-17T19:44:04.372Z,88.06
2023-02-17T19:49:08.897Z,88.09
2023-02-17T19:54:11.987Z,88.42
2023-02-17T19:59:15.259Z,88.61
2023-02-17T20:04:20.428Z,89.00
2023-02-17T20:09:24.743Z,89.58
2023-02-17T20:14:28.247Z,89.29
2023-02-17T20:19:32.572Z,90.04
2023-02-17T20:24:37.813Z,90.63
2023-02-17T20:29:41.112Z,91.34
2023-02-17T20:34:44.138Z,91.78
2023-02-17T20:39:47.328Z,91.11
2023-02-17T20:44:53.719Z,90.61
2023-02-17T20:49:57.417Z,91.01
2023-02-17T20:55:01.092Z,91.25
2023-02-17T21:00:06.674Z,92.26
2023-02-17T21:05:10.269Z,92.93
2023-02-17T21:10:20.635Z,93.78
2023-02-17T21:15:24.297Z,94.71
2023-02-17T21:20:28.484Z,95.12
2023-02-17T21:25:31.970Z,95.14
2023-02-17T21:30:35.799Z,95.45
2023-02-17T21:35:39.474Z,96.42
2023-02-17T21:40:43.109Z,96.35
2023-02-17T21:45:46.475Z,96.61
2023-02-17T21:50:49.511Z,96.25
2023-02-17T21:55:53.035Z,96.36
2023-02-17T22:00:56.227Z,96.46
2023-02-17T22:06:00.111Z,97.22
2023-02-17T22:11:03.281Z,97.84
2023-02-17T22:16:07.142Z,97.94
2023-02-17T22:21:13.297Z,98.44
2023-02-17T22:26:19.322Z,98.94
2023-02-17T22:31:25.625Z,98.25
2023-02-17T22:36:31.130Z,98.63
2023-02-17T22:41:36.425Z,99.33
2023-02-17T22:46:39.479Z,99.49
2023-02-17T22:51:42.493Z,99.79
2023-02-17T22:56:45.748Z,99.98
2023-02-17T23:01:49.429Z,100.00
2023-02-17T23:06:52.523Z,100.00
2023-02-17T23:11:57.824Z,100.00
2023-02-17T23:17:12.285Z,100.00
2023-02-17T23:22:18.279Z,100.00
2023-02-17T23:27:21.387Z,100.00
2023-02-17T23:32:24.927Z,100.00
2023-02-17T23:37:27.978Z,100.00
2023-02-17T23:42:31.059Z,100.00
2023-02-17T23:47:34.380Z,100.00
2023-02-17T23:52:37.877Z,100.00
2023-02-17T23:57:41.388Z,100.00
